sensor_id;sensor_type;location;lat;lon;timestamp;P1;durP1;ratioP1;P2;durP2;ratioP2
71490;SDS011;59307;50.060;9.150;2023-02-28T00:01:22;4.88;;;2.20;;
71490;SDS011;59307;50.060;9.150;2023-02-28T00:03:47;4.38;;;2.10;;
71490;SDS011;59307;50.060;9.150;2023-02-28T00:06:13;4.00;;;2.07;;
71490;SDS011;59307;50.060;9.150;2023-02-28T00:08:38;4.17;;;1.97;;
71490;SDS011;59307;50.060;9.150;2023-02-28T00:11:05;6.53;;;2.30;;
71490;SDS011;59307;50.060;9.150;2023-02-28T00:13:31;4.05;;;2.00;;
71490;SDS011;59307;50.060;9.150;2023-02-28T00:16:00;6.23;;;2.30;;
71490;SDS011;59307;50.060;9.150;2023-02-28T00:18:25;5.00;;;2.30;;
71490;SDS011;59307;50.060;9.150;2023-02-28T00:20:50;3.63;;;2.20;;
71490;SDS011;59307;50.060;9.150;2023-02-28T00:23:15;6.27;;;2.10;;
71490;SDS011;59307;50.060;9.150;2023-02-28T00:25:41;4.50;;;2.30;;
71490;SDS011;59307;50.060;9.150;2023-02-28T00:28:06;5.33;;;2.30;;
71490;SDS011;59307;50.060;9.150;2023-02-28T00:30:31;4.20;;;2.30;;
71490;SDS011;59307;50.060;9.150;2023-02-28T00:32:56;3.93;;;2.13;;
71490;SDS011;59307;50.060;9.150;2023-02-28T00:35:21;4.60;;;2.40;;
71490;SDS011;59307;50.060;9.150;2023-02-28T00:37:47;5.43;;;2.57;;
71490;SDS011;59307;50.060;9.150;2023-02-28T00:40:12;4.30;;;2.30;;
71490;SDS011;59307;50.060;9.150;2023-02-28T00:42:38;4.73;;;2.43;;
71490;SDS011;59307;50.060;9.150;2023-02-28T00:45:03;4.97;;;2.50;;
71490;SDS011;59307;50.060;9.150;2023-02-28T00:47:29;5.63;;;2.50;;
71490;SDS011;59307;50.060;9.150;2023-02-28T00:49:54;3.97;;;2.40;;
71490;SDS011;59307;50.060;9.150;2023-02-28T00:52:20;5.53;;;2.63;;
71490;SDS011;59307;50.060;9.150;2023-02-28T00:54:45;5.73;;;2.80;;
71490;SDS011;59307;50.060;9.150;2023-02-28T00:57:10;5.73;;;2.43;;
71490;SDS011;59307;50.060;9.150;2023-02-28T00:59:35;5.00;;;2.40;;
71490;SDS011;59307;50.060;9.150;2023-02-28T01:02:00;7.70;;;3.00;;
71490;SDS011;59307;50.060;9.150;2023-02-28T01:04:26;6.73;;;2.70;;
71490;SDS011;59307;50.060;9.150;2023-02-28T01:06:51;6.60;;;2.97;;
71490;SDS011;59307;50.060;9.150;2023-02-28T01:09:16;5.03;;;2.67;;
71490;SDS011;59307;50.060;9.150;2023-02-28T01:11:41;6.57;;;3.23;;
71490;SDS011;59307;50.060;9.150;2023-02-28T01:14:09;5.97;;;2.88;;
71490;SDS011;59307;50.060;9.150;2023-02-28T01:16:36;6.40;;;2.92;;
71490;SDS011;59307;50.060;9.150;2023-02-28T01:19:01;8.17;;;3.20;;
71490;SDS011;59307;50.060;9.150;2023-02-28T01:21:26;5.13;;;2.90;;
71490;SDS011;59307;50.060;9.150;2023-02-28T01:23:51;4.53;;;2.57;;
71490;SDS011;59307;50.060;9.150;2023-02-28T01:26:18;5.67;;;2.90;;
71490;SDS011;59307;50.060;9.150;2023-02-28T01:28:43;5.47;;;2.70;;
71490;SDS011;59307;50.060;9.150;2023-02-28T01:31:09;6.10;;;3.00;;
71490;SDS011;59307;50.060;9.150;2023-02-28T01:33:35;7.20;;;2.95;;
71490;SDS011;59307;50.060;9.150;2023-02-28T01:36:02;5.30;;;2.97;;
71490;SDS011;59307;50.060;9.150;2023-02-28T01:38:28;8.35;;;3.33;;
71490;SDS011;59307;50.060;9.150;2023-02-28T01:40:53;6.28;;;2.90;;
71490;SDS011;59307;50.060;9.150;2023-02-28T01:43:20;8.57;;;3.13;;
71490;SDS011;59307;50.060;9.150;2023-02-28T01:45:46;7.70;;;3.13;;
71490;SDS011;59307;50.060;9.150;2023-02-28T01:48:11;7.23;;;3.00;;
71490;SDS011;59307;50.060;9.150;2023-02-28T01:50:38;5.10;;;2.70;;
71490;SDS011;59307;50.060;9.150;2023-02-28T01:53:05;5.15;;;2.47;;
71490;SDS011;59307;50.060;9.150;2023-02-28T01:55:31;5.38;;;2.70;;
71490;SDS011;59307;50.060;9.150;2023-02-28T01:57:58;7.83;;;3.00;;
71490;SDS011;59307;50.060;9.150;2023-02-28T02:00:25;4.85;;;2.90;;
71490;SDS011;59307;50.060;9.150;2023-02-28T02:02:55;6.15;;;3.05;;
71490;SDS011;59307;50.060;9.150;2023-02-28T02:05:22;6.75;;;3.15;;
71490;SDS011;59307;50.060;9.150;2023-02-28T02:07:49;5.43;;;3.07;;
71490;SDS011;59307;50.060;9.150;2023-02-28T02:15:29;5.38;;;2.58;;
71490;SDS011;59307;50.060;9.150;2023-02-28T02:17:57;6.75;;;2.83;;
71490;SDS011;59307;50.060;9.150;2023-02-28T02:20:42;7.03;;;2.70;;
71490;SDS011;59307;50.060;9.150;2023-02-28T02:25:55;5.43;;;2.75;;
71490;SDS011;59307;50.060;9.150;2023-02-28T02:30:59;5.22;;;2.63;;
71490;SDS011;59307;50.060;9.150;2023-02-28T02:36:14;7.22;;;3.22;;
71490;SDS011;59307;50.060;9.150;2023-02-28T02:46:02;5.63;;;3.00;;
71490;SDS011;59307;50.060;9.150;2023-02-28T02:48:30;6.80;;;3.50;;
71490;SDS011;59307;50.060;9.150;2023-02-28T02:50:58;7.13;;;2.93;;
71490;SDS011;59307;50.060;9.150;2023-02-28T02:53:27;6.07;;;3.20;;
71490;SDS011;59307;50.060;9.150;2023-02-28T02:55:54;4.93;;;2.75;;
71490;SDS011;59307;50.060;9.150;2023-02-28T02:58:21;6.77;;;3.03;;
71490;SDS011;59307;50.060;9.150;2023-02-28T03:00:49;7.40;;;2.93;;
71490;SDS011;59307;50.060;9.150;2023-02-28T03:03:15;6.05;;;3.10;;
71490;SDS011;59307;50.060;9.150;2023-02-28T03:05:46;7.85;;;3.25;;
71490;SDS011;59307;50.060;9.150;2023-02-28T03:08:12;10.82;;;3.30;;
71490;SDS011;59307;50.060;9.150;2023-02-28T03:10:44;6.73;;;2.80;;
71490;SDS011;59307;50.060;9.150;2023-02-28T03:15:57;5.07;;;2.83;;
71490;SDS011;59307;50.060;9.150;2023-02-28T03:18:45;5.32;;;2.58;;
71490;SDS011;59307;50.060;9.150;2023-02-28T03:23:42;6.05;;;2.80;;
71490;SDS011;59307;50.060;9.150;2023-02-28T03:26:12;6.55;;;2.78;;
71490;SDS011;59307;50.060;9.150;2023-02-28T03:33:38;6.27;;;3.13;;
71490;SDS011;59307;50.060;9.150;2023-02-28T03:36:09;5.50;;;2.70;;
71490;SDS011;59307;50.060;9.150;2023-02-28T03:38:45;6.70;;;3.20;;
71490;SDS011;59307;50.060;9.150;2023-02-28T03:41:15;5.95;;;3.20;;
71490;SDS011;59307;50.060;9.150;2023-02-28T03:43:43;8.27;;;2.75;;
71490;SDS011;59307;50.060;9.150;2023-02-28T03:46:10;5.60;;;2.33;;
71490;SDS011;59307;50.060;9.150;2023-02-28T03:48:40;8.13;;;3.00;;
71490;SDS011;59307;50.060;9.150;2023-02-28T03:51:07;5.55;;;2.72;;
71490;SDS011;59307;50.060;9.150;2023-02-28T03:53:35;4.57;;;2.80;;
71490;SDS011;59307;50.060;9.150;2023-02-28T03:56:06;6.63;;;3.42;;
71490;SDS011;59307;50.060;9.150;2023-02-28T03:58:47;6.13;;;2.80;;
71490;SDS011;59307;50.060;9.150;2023-02-28T04:01:16;6.07;;;2.80;;
71490;SDS011;59307;50.060;9.150;2023-02-28T04:03:43;5.53;;;3.00;;
71490;SDS011;59307;50.060;9.150;2023-02-28T04:06:13;7.00;;;2.90;;
71490;SDS011;59307;50.060;9.150;2023-02-28T04:08:39;5.93;;;2.97;;
71490;SDS011;59307;50.060;9.150;2023-02-28T04:11:06;5.40;;;2.70;;
71490;SDS011;59307;50.060;9.150;2023-02-28T04:13:33;5.70;;;2.85;;
71490;SDS011;59307;50.060;9.150;2023-02-28T04:15:58;9.37;;;3.20;;
71490;SDS011;59307;50.060;9.150;2023-02-28T04:18:24;6.33;;;3.03;;
71490;SDS011;59307;50.060;9.150;2023-02-28T04:20:49;7.57;;;2.80;;
71490;SDS011;59307;50.060;9.150;2023-02-28T04:23:14;7.50;;;2.87;;
71490;SDS011;59307;50.060;9.150;2023-02-28T04:25:39;5.10;;;2.77;;
71490;SDS011;59307;50.060;9.150;2023-02-28T04:28:05;5.40;;;2.60;;
71490;SDS011;59307;50.060;9.150;2023-02-28T04:30:30;8.43;;;2.80;;
71490;SDS011;59307;50.060;9.150;2023-02-28T04:32:57;5.45;;;2.90;;
71490;SDS011;59307;50.060;9.150;2023-02-28T04:35:22;6.13;;;2.90;;
71490;SDS011;59307;50.060;9.150;2023-02-28T04:37:47;4.87;;;2.70;;
71490;SDS011;59307;50.060;9.150;2023-02-28T04:40:12;5.80;;;2.83;;
71490;SDS011;59307;50.060;9.150;2023-02-28T04:42:38;5.20;;;2.80;;
71490;SDS011;59307;50.060;9.150;2023-02-28T04:45:03;5.83;;;2.93;;
71490;SDS011;59307;50.060;9.150;2023-02-28T04:47:28;5.30;;;2.93;;
71490;SDS011;59307;50.060;9.150;2023-02-28T04:49:53;7.87;;;3.07;;
71490;SDS011;59307;50.060;9.150;2023-02-28T04:52:19;6.80;;;2.90;;
71490;SDS011;59307;50.060;9.150;2023-02-28T04:54:44;6.70;;;3.30;;
71490;SDS011;59307;50.060;9.150;2023-02-28T04:57:09;5.77;;;2.70;;
71490;SDS011;59307;50.060;9.150;2023-02-28T04:59:35;6.10;;;2.33;;
71490;SDS011;59307;50.060;9.150;2023-02-28T05:02:00;3.67;;;2.13;;
71490;SDS011;59307;50.060;9.150;2023-02-28T05:04:25;4.67;;;2.83;;
71490;SDS011;59307;50.060;9.150;2023-02-28T05:06:50;5.80;;;2.70;;
71490;SDS011;59307;50.060;9.150;2023-02-28T05:09:15;7.80;;;2.90;;
71490;SDS011;59307;50.060;9.150;2023-02-28T05:11:41;7.00;;;3.00;;
71490;SDS011;59307;50.060;9.150;2023-02-28T05:14:08;5.10;;;2.80;;
71490;SDS011;59307;50.060;9.150;2023-02-28T05:16:34;6.93;;;2.78;;
71490;SDS011;59307;50.060;9.150;2023-02-28T05:18:59;4.60;;;2.30;;
71490;SDS011;59307;50.060;9.150;2023-02-28T05:21:28;5.45;;;3.10;;
71490;SDS011;59307;50.060;9.150;2023-02-28T05:23:54;6.37;;;3.10;;
71490;SDS011;59307;50.060;9.150;2023-02-28T05:26:19;7.60;;;3.55;;
71490;SDS011;59307;50.060;9.150;2023-02-28T05:28:45;6.83;;;2.83;;
71490;SDS011;59307;50.060;9.150;2023-02-28T05:31:10;10.53;;;3.97;;
71490;SDS011;59307;50.060;9.150;2023-02-28T05:33:36;11.83;;;4.10;;
71490;SDS011;59307;50.060;9.150;2023-02-28T05:36:01;9.60;;;3.20;;
71490;SDS011;59307;50.060;9.150;2023-02-28T05:38:26;7.57;;;3.80;;
71490;SDS011;59307;50.060;9.150;2023-02-28T05:40:51;6.03;;;2.80;;
71490;SDS011;59307;50.060;9.150;2023-02-28T05:43:18;7.95;;;3.10;;
71490;SDS011;59307;50.060;9.150;2023-02-28T05:45:43;7.47;;;3.20;;
71490;SDS011;59307;50.060;9.150;2023-02-28T05:48:08;6.00;;;2.67;;
71490;SDS011;59307;50.060;9.150;2023-02-28T05:50:34;6.60;;;2.83;;
71490;SDS011;59307;50.060;9.150;2023-02-28T05:52:59;6.97;;;2.90;;
71490;SDS011;59307;50.060;9.150;2023-02-28T05:55:24;5.80;;;3.03;;
71490;SDS011;59307;50.060;9.150;2023-02-28T05:57:49;6.77;;;2.90;;
71490;SDS011;59307;50.060;9.150;2023-02-28T06:00:15;6.07;;;3.20;;
71490;SDS011;59307;50.060;9.150;2023-02-28T06:02:40;4.88;;;2.42;;
71490;SDS011;59307;50.060;9.150;2023-02-28T06:05:08;5.33;;;2.80;;
71490;SDS011;59307;50.060;9.150;2023-02-28T06:07:37;5.82;;;2.88;;
71490;SDS011;59307;50.060;9.150;2023-02-28T06:10:02;6.40;;;3.30;;
71490;SDS011;59307;50.060;9.150;2023-02-28T06:12:28;8.00;;;3.30;;
71490;SDS011;59307;50.060;9.150;2023-02-28T06:14:53;6.33;;;3.40;;
71490;SDS011;59307;50.060;9.150;2023-02-28T06:17:18;7.73;;;3.60;;
71490;SDS011;59307;50.060;9.150;2023-02-28T06:19:43;6.93;;;3.87;;
71490;SDS011;59307;50.060;9.150;2023-02-28T06:22:09;6.00;;;2.97;;
71490;SDS011;59307;50.060;9.150;2023-02-28T06:24:34;5.37;;;2.77;;
71490;SDS011;59307;50.060;9.150;2023-02-28T06:26:59;7.57;;;3.07;;
71490;SDS011;59307;50.060;9.150;2023-02-28T06:29:29;7.50;;;3.45;;
71490;SDS011;59307;50.060;9.150;2023-02-28T06:31:55;7.90;;;3.40;;
71490;SDS011;59307;50.060;9.150;2023-02-28T06:34:20;6.07;;;3.10;;
71490;SDS011;59307;50.060;9.150;2023-02-28T06:36:45;6.80;;;3.50;;
71490;SDS011;59307;50.060;9.150;2023-02-28T06:39:10;5.33;;;2.67;;
71490;SDS011;59307;50.060;9.150;2023-02-28T06:41:35;6.00;;;2.80;;
71490;SDS011;59307;50.060;9.150;2023-02-28T06:44:10;9.73;;;3.30;;
71490;SDS011;59307;50.060;9.150;2023-02-28T06:46:36;7.38;;;3.15;;
71490;SDS011;59307;50.060;9.150;2023-02-28T06:49:02;7.00;;;3.30;;
71490;SDS011;59307;50.060;9.150;2023-02-28T06:51:27;8.70;;;2.87;;
71490;SDS011;59307;50.060;9.150;2023-02-28T06:53:52;6.10;;;3.03;;
71490;SDS011;59307;50.060;9.150;2023-02-28T06:56:18;6.63;;;3.10;;
71490;SDS011;59307;50.060;9.150;2023-02-28T06:58:48;6.88;;;2.78;;
71490;SDS011;59307;50.060;9.150;2023-02-28T07:01:14;6.55;;;3.35;;
71490;SDS011;59307;50.060;9.150;2023-02-28T07:03:39;6.27;;;3.13;;
71490;SDS011;59307;50.060;9.150;2023-02-28T07:06:05;5.83;;;2.50;;
71490;SDS011;59307;50.060;9.150;2023-02-28T07:08:31;5.30;;;2.80;;
71490;SDS011;59307;50.060;9.150;2023-02-28T07:10:56;6.13;;;2.92;;
71490;SDS011;59307;50.060;9.150;2023-02-28T07:13:22;5.50;;;2.60;;
71490;SDS011;59307;50.060;9.150;2023-02-28T07:15:54;6.07;;;3.08;;
71490;SDS011;59307;50.060;9.150;2023-02-28T07:18:19;6.70;;;3.50;;
71490;SDS011;59307;50.060;9.150;2023-02-28T07:20:45;4.40;;;2.50;;
71490;SDS011;59307;50.060;9.150;2023-02-28T07:23:10;5.47;;;2.77;;
71490;SDS011;59307;50.060;9.150;2023-02-28T07:25:35;8.63;;;3.10;;
71490;SDS011;59307;50.060;9.150;2023-02-28T07:28:01;6.33;;;2.17;;
71490;SDS011;59307;50.060;9.150;2023-02-28T07:30:26;5.67;;;2.63;;
71490;SDS011;59307;50.060;9.150;2023-02-28T07:32:51;7.83;;;2.93;;
71490;SDS011;59307;50.060;9.150;2023-02-28T07:35:16;6.90;;;3.17;;
71490;SDS011;59307;50.060;9.150;2023-02-28T07:37:42;6.10;;;2.90;;
71490;SDS011;59307;50.060;9.150;2023-02-28T07:40:08;5.97;;;2.80;;
71490;SDS011;59307;50.060;9.150;2023-02-28T07:42:34;9.07;;;2.80;;
71490;SDS011;59307;50.060;9.150;2023-02-28T07:44:59;7.33;;;3.17;;
71490;SDS011;59307;50.060;9.150;2023-02-28T07:47:24;6.37;;;2.50;;
71490;SDS011;59307;50.060;9.150;2023-02-28T07:49:49;5.83;;;2.57;;
71490;SDS011;59307;50.060;9.150;2023-02-28T07:52:15;5.63;;;2.80;;
71490;SDS011;59307;50.060;9.150;2023-02-28T07:54:40;4.27;;;2.40;;
71490;SDS011;59307;50.060;9.150;2023-02-28T07:57:05;5.60;;;2.40;;
71490;SDS011;59307;50.060;9.150;2023-02-28T07:59:30;6.23;;;3.03;;
71490;SDS011;59307;50.060;9.150;2023-02-28T08:01:57;5.33;;;2.53;;
71490;SDS011;59307;50.060;9.150;2023-02-28T08:04:22;6.00;;;3.13;;
71490;SDS011;59307;50.060;9.150;2023-02-28T08:06:47;6.80;;;3.53;;
71490;SDS011;59307;50.060;9.150;2023-02-28T08:09:12;7.37;;;2.97;;
71490;SDS011;59307;50.060;9.150;2023-02-28T08:11:37;7.37;;;2.93;;
71490;SDS011;59307;50.060;9.150;2023-02-28T08:14:03;6.57;;;3.23;;
71490;SDS011;59307;50.060;9.150;2023-02-28T08:16:28;4.60;;;2.33;;
71490;SDS011;59307;50.060;9.150;2023-02-28T08:18:53;6.93;;;2.90;;
71490;SDS011;59307;50.060;9.150;2023-02-28T08:21:19;7.10;;;3.30;;
71490;SDS011;59307;50.060;9.150;2023-02-28T08:23:46;7.18;;;3.53;;
71490;SDS011;59307;50.060;9.150;2023-02-28T08:26:11;8.80;;;3.60;;
71490;SDS011;59307;50.060;9.150;2023-02-28T08:28:37;7.53;;;4.03;;
71490;SDS011;59307;50.060;9.150;2023-02-28T08:31:06;7.80;;;3.30;;
71490;SDS011;59307;50.060;9.150;2023-02-28T08:33:32;6.68;;;3.40;;
71490;SDS011;59307;50.060;9.150;2023-02-28T08:35:57;8.20;;;3.43;;
71490;SDS011;59307;50.060;9.150;2023-02-28T08:38:22;7.07;;;3.43;;
71490;SDS011;59307;50.060;9.150;2023-02-28T08:40:47;8.13;;;3.40;;
71490;SDS011;59307;50.060;9.150;2023-02-28T08:43:13;8.50;;;3.83;;
71490;SDS011;59307;50.060;9.150;2023-02-28T08:45:38;6.63;;;2.90;;
71490;SDS011;59307;50.060;9.150;2023-02-28T08:48:03;6.57;;;3.27;;
71490;SDS011;59307;50.060;9.150;2023-02-28T08:50:29;7.93;;;3.60;;
71490;SDS011;59307;50.060;9.150;2023-02-28T08:52:54;7.50;;;3.20;;
71490;SDS011;59307;50.060;9.150;2023-02-28T08:55:19;6.63;;;3.40;;
71490;SDS011;59307;50.060;9.150;2023-02-28T08:57:44;6.63;;;3.40;;
71490;SDS011;59307;50.060;9.150;2023-02-28T09:00:10;25.10;;;4.07;;
71490;SDS011;59307;50.060;9.150;2023-02-28T09:02:38;6.83;;;3.53;;
71490;SDS011;59307;50.060;9.150;2023-02-28T09:05:03;8.73;;;3.70;;
71490;SDS011;59307;50.060;9.150;2023-02-28T09:07:29;9.10;;;3.93;;
71490;SDS011;59307;50.060;9.150;2023-02-28T09:09:54;6.73;;;3.37;;
71490;SDS011;59307;50.060;9.150;2023-02-28T09:12:21;6.75;;;3.35;;
71490;SDS011;59307;50.060;9.150;2023-02-28T09:14:46;8.10;;;3.73;;
71490;SDS011;59307;50.060;9.150;2023-02-28T09:17:12;7.53;;;3.50;;
71490;SDS011;59307;50.060;9.150;2023-02-28T09:19:37;6.97;;;3.47;;
71490;SDS011;59307;50.060;9.150;2023-02-28T09:22:02;6.93;;;3.27;;
71490;SDS011;59307;50.060;9.150;2023-02-28T09:24:27;6.47;;;3.40;;
71490;SDS011;59307;50.060;9.150;2023-02-28T09:26:52;9.40;;;3.30;;
71490;SDS011;59307;50.060;9.150;2023-02-28T09:29:18;6.40;;;3.03;;
71490;SDS011;59307;50.060;9.150;2023-02-28T09:31:43;7.03;;;3.33;;
71490;SDS011;59307;50.060;9.150;2023-02-28T09:34:08;7.22;;;3.50;;
71490;SDS011;59307;50.060;9.150;2023-02-28T09:36:34;7.37;;;3.13;;
71490;SDS011;59307;50.060;9.150;2023-02-28T09:38:59;6.40;;;3.33;;
71490;SDS011;59307;50.060;9.150;2023-02-28T09:41:25;6.50;;;3.53;;
71490;SDS011;59307;50.060;9.150;2023-02-28T09:43:54;8.40;;;3.93;;
71490;SDS011;59307;50.060;9.150;2023-02-28T09:48:46;8.40;;;3.33;;
71490;SDS011;59307;50.060;9.150;2023-02-28T09:51:15;6.38;;;3.25;;
71490;SDS011;59307;50.060;9.150;2023-02-28T09:53:43;5.65;;;3.13;;
71490;SDS011;59307;50.060;9.150;2023-02-28T09:56:10;7.47;;;3.70;;
71490;SDS011;59307;50.060;9.150;2023-02-28T09:58:45;7.20;;;3.50;;
71490;SDS011;59307;50.060;9.150;2023-02-28T10:03:40;6.97;;;3.00;;
71490;SDS011;59307;50.060;9.150;2023-02-28T10:06:14;6.25;;;3.22;;
71490;SDS011;59307;50.060;9.150;2023-02-28T10:08:47;7.82;;;3.72;;
71490;SDS011;59307;50.060;9.150;2023-02-28T10:11:16;10.15;;;4.28;;
71490;SDS011;59307;50.060;9.150;2023-02-28T10:13:56;6.87;;;3.97;;
71490;SDS011;59307;50.060;9.150;2023-02-28T10:16:34;7.65;;;3.60;;
71490;SDS011;59307;50.060;9.150;2023-02-28T10:19:05;10.13;;;4.22;;
71490;SDS011;59307;50.060;9.150;2023-02-28T10:23:59;7.73;;;4.10;;
71490;SDS011;59307;50.060;9.150;2023-02-28T10:26:26;7.55;;;3.55;;
71490;SDS011;59307;50.060;9.150;2023-02-28T10:28:53;7.07;;;3.53;;
71490;SDS011;59307;50.060;9.150;2023-02-28T10:31:19;8.88;;;3.75;;
71490;SDS011;59307;50.060;9.150;2023-02-28T10:33:44;7.30;;;3.00;;
71490;SDS011;59307;50.060;9.150;2023-02-28T10:36:12;6.53;;;3.40;;
71490;SDS011;59307;50.060;9.150;2023-02-28T10:38:39;6.97;;;3.42;;
71490;SDS011;59307;50.060;9.150;2023-02-28T10:41:08;5.50;;;3.42;;
71490;SDS011;59307;50.060;9.150;2023-02-28T10:43:34;9.13;;;3.50;;
71490;SDS011;59307;50.060;9.150;2023-02-28T10:48:27;7.00;;;3.73;;
71490;SDS011;59307;50.060;9.150;2023-02-28T10:50:53;6.95;;;3.60;;
71490;SDS011;59307;50.060;9.150;2023-02-28T10:55:56;7.68;;;3.40;;
71490;SDS011;59307;50.060;9.150;2023-02-28T10:58:22;8.70;;;3.85;;
71490;SDS011;59307;50.060;9.150;2023-02-28T11:00:48;5.75;;;3.20;;
71490;SDS011;59307;50.060;9.150;2023-02-28T11:03:23;5.53;;;3.03;;
71490;SDS011;59307;50.060;9.150;2023-02-28T11:05:49;7.77;;;3.93;;
71490;SDS011;59307;50.060;9.150;2023-02-28T11:08:17;11.87;;;3.77;;
71490;SDS011;59307;50.060;9.150;2023-02-28T11:10:47;9.07;;;4.10;;
71490;SDS011;59307;50.060;9.150;2023-02-28T11:13:17;8.73;;;4.15;;
71490;SDS011;59307;50.060;9.150;2023-02-28T11:15:46;7.85;;;4.00;;
71490;SDS011;59307;50.060;9.150;2023-02-28T11:20:43;11.93;;;3.67;;
71490;SDS011;59307;50.060;9.150;2023-02-28T11:23:13;5.97;;;3.47;;
71490;SDS011;59307;50.060;9.150;2023-02-28T11:25:39;7.70;;;3.83;;
71490;SDS011;59307;50.060;9.150;2023-02-28T11:28:05;6.53;;;3.53;;
71490;SDS011;59307;50.060;9.150;2023-02-28T11:32:56;7.83;;;4.10;;
71490;SDS011;59307;50.060;9.150;2023-02-28T11:37:50;7.47;;;4.38;;
71490;SDS011;59307;50.060;9.150;2023-02-28T11:40:16;9.33;;;4.53;;
71490;SDS011;59307;50.060;9.150;2023-02-28T11:53:01;7.70;;;4.53;;
71490;SDS011;59307;50.060;9.150;2023-02-28T11:55:37;7.45;;;3.83;;
71490;SDS011;59307;50.060;9.150;2023-02-28T12:11:11;11.67;;;5.20;;
71490;SDS011;59307;50.060;9.150;2023-02-28T12:13:48;8.45;;;4.40;;
71490;SDS011;59307;50.060;9.150;2023-02-28T12:19:26;10.13;;;4.50;;
71490;SDS011;59307;50.060;9.150;2023-02-28T12:27:22;9.02;;;4.68;;
71490;SDS011;59307;50.060;9.150;2023-02-28T12:29:51;9.25;;;4.43;;
71490;SDS011;59307;50.060;9.150;2023-02-28T12:32:25;8.93;;;4.72;;
71490;SDS011;59307;50.060;9.150;2023-02-28T12:34:52;9.35;;;4.82;;
71490;SDS011;59307;50.060;9.150;2023-02-28T12:37:29;12.27;;;5.20;;
71490;SDS011;59307;50.060;9.150;2023-02-28T12:40:00;8.25;;;4.68;;
71490;SDS011;59307;50.060;9.150;2023-02-28T12:42:31;8.57;;;4.38;;
71490;SDS011;59307;50.060;9.150;2023-02-28T12:45:02;8.20;;;4.45;;
71490;SDS011;59307;50.060;9.150;2023-02-28T12:47:29;9.10;;;4.38;;
71490;SDS011;59307;50.060;9.150;2023-02-28T12:50:04;10.13;;;5.20;;
71490;SDS011;59307;50.060;9.150;2023-02-28T12:55:15;8.20;;;4.47;;
71490;SDS011;59307;50.060;9.150;2023-02-28T12:57:50;7.97;;;4.13;;
71490;SDS011;59307;50.060;9.150;2023-02-28T13:00:21;8.38;;;4.65;;
71490;SDS011;59307;50.060;9.150;2023-02-28T13:05:39;7.30;;;4.17;;
71490;SDS011;59307;50.060;9.150;2023-02-28T13:08:27;9.30;;;4.88;;
71490;SDS011;59307;50.060;9.150;2023-02-28T13:10:55;9.80;;;5.28;;
71490;SDS011;59307;50.060;9.150;2023-02-28T13:13:21;10.10;;;5.33;;
71490;SDS011;59307;50.060;9.150;2023-02-28T13:15:57;6.78;;;3.60;;
71490;SDS011;59307;50.060;9.150;2023-02-28T13:18:34;8.63;;;3.90;;
71490;SDS011;59307;50.060;9.150;2023-02-28T13:21:02;9.27;;;4.93;;
71490;SDS011;59307;50.060;9.150;2023-02-28T13:24:09;9.20;;;4.70;;
71490;SDS011;59307;50.060;9.150;2023-02-28T13:26:20;7.65;;;4.43;;
71490;SDS011;59307;50.060;9.150;2023-02-28T13:31:14;8.70;;;4.83;;
71490;SDS011;59307;50.060;9.150;2023-02-28T14:02:58;7.47;;;4.40;;
71490;SDS011;59307;50.060;9.150;2023-02-28T14:05:26;9.23;;;4.85;;
71490;SDS011;59307;50.060;9.150;2023-02-28T14:07:53;9.90;;;5.03;;
71490;SDS011;59307;50.060;9.150;2023-02-28T14:10:30;8.70;;;4.90;;
71490;SDS011;59307;50.060;9.150;2023-02-28T14:13:36;7.85;;;4.90;;
71490;SDS011;59307;50.060;9.150;2023-02-28T14:16:00;7.40;;;4.93;;
71490;SDS011;59307;50.060;9.150;2023-02-28T14:20:52;9.33;;;4.77;;
71490;SDS011;59307;50.060;9.150;2023-02-28T14:23:22;9.73;;;4.90;;
71490;SDS011;59307;50.060;9.150;2023-02-28T14:33:25;9.50;;;4.93;;
71490;SDS011;59307;50.060;9.150;2023-02-28T14:38:20;9.70;;;4.83;;
71490;SDS011;59307;50.060;9.150;2023-02-28T14:40:47;8.10;;;4.47;;
71490;SDS011;59307;50.060;9.150;2023-02-28T14:43:20;9.32;;;5.25;;
71490;SDS011;59307;50.060;9.150;2023-02-28T14:45:48;8.85;;;4.70;;
71490;SDS011;59307;50.060;9.150;2023-02-28T14:48:15;10.25;;;5.25;;
71490;SDS011;59307;50.060;9.150;2023-02-28T14:50:40;9.53;;;4.83;;
71490;SDS011;59307;50.060;9.150;2023-02-28T14:53:15;7.13;;;4.15;;
71490;SDS011;59307;50.060;9.150;2023-02-28T14:55:44;10.75;;;4.90;;
71490;SDS011;59307;50.060;9.150;2023-02-28T14:58:17;8.93;;;4.75;;
71490;SDS011;59307;50.060;9.150;2023-02-28T15:00:48;7.80;;;4.60;;
71490;SDS011;59307;50.060;9.150;2023-02-28T15:03:33;10.50;;;4.50;;
71490;SDS011;59307;50.060;9.150;2023-02-28T15:05:59;10.10;;;4.90;;
71490;SDS011;59307;50.060;9.150;2023-02-28T15:08:25;8.60;;;4.88;;
71490;SDS011;59307;50.060;9.150;2023-02-28T15:10:55;7.93;;;4.90;;
71490;SDS011;59307;50.060;9.150;2023-02-28T15:13:20;8.82;;;4.70;;
71490;SDS011;59307;50.060;9.150;2023-02-28T15:15:53;8.87;;;5.00;;
71490;SDS011;59307;50.060;9.150;2023-02-28T15:20:54;8.88;;;4.75;;
71490;SDS011;59307;50.060;9.150;2023-02-28T15:23:20;8.60;;;4.80;;
71490;SDS011;59307;50.060;9.150;2023-02-28T15:25:46;8.90;;;5.00;;
71490;SDS011;59307;50.060;9.150;2023-02-28T15:28:13;8.57;;;4.60;;
71490;SDS011;59307;50.060;9.150;2023-02-28T15:30:39;9.57;;;4.90;;
71490;SDS011;59307;50.060;9.150;2023-02-28T15:33:05;8.73;;;4.57;;
71490;SDS011;59307;50.060;9.150;2023-02-28T15:35:32;10.18;;;5.10;;
71490;SDS011;59307;50.060;9.150;2023-02-28T15:38:01;9.43;;;4.85;;
71490;SDS011;59307;50.060;9.150;2023-02-28T15:40:31;8.82;;;4.75;;
71490;SDS011;59307;50.060;9.150;2023-02-28T15:43:03;9.10;;;4.60;;
71490;SDS011;59307;50.060;9.150;2023-02-28T15:45:34;8.35;;;4.60;;
71490;SDS011;59307;50.060;9.150;2023-02-28T15:48:03;7.95;;;4.43;;
71490;SDS011;59307;50.060;9.150;2023-02-28T15:50:28;9.63;;;4.50;;
71490;SDS011;59307;50.060;9.150;2023-02-28T15:52:54;10.65;;;4.82;;
71490;SDS011;59307;50.060;9.150;2023-02-28T15:55:20;10.70;;;4.87;;
71490;SDS011;59307;50.060;9.150;2023-02-28T15:57:47;8.75;;;4.63;;
71490;SDS011;59307;50.060;9.150;2023-02-28T16:00:15;9.75;;;5.18;;
71490;SDS011;59307;50.060;9.150;2023-02-28T16:02:40;9.20;;;4.83;;
71490;SDS011;59307;50.060;9.150;2023-02-28T16:07:32;9.90;;;5.00;;
71490;SDS011;59307;50.060;9.150;2023-02-28T16:09:57;9.95;;;4.82;;
71490;SDS011;59307;50.060;9.150;2023-02-28T16:12:29;10.60;;;5.47;;
71490;SDS011;59307;50.060;9.150;2023-02-28T16:14:55;9.27;;;4.67;;
71490;SDS011;59307;50.060;9.150;2023-02-28T16:17:22;9.27;;;4.55;;
71490;SDS011;59307;50.060;9.150;2023-02-28T16:19:48;10.23;;;4.93;;
71490;SDS011;59307;50.060;9.150;2023-02-28T16:22:13;8.03;;;4.50;;
71490;SDS011;59307;50.060;9.150;2023-02-28T16:24:38;8.90;;;4.90;;
71490;SDS011;59307;50.060;9.150;2023-02-28T16:27:05;14.13;;;6.60;;
71490;SDS011;59307;50.060;9.150;2023-02-28T16:29:31;9.23;;;5.00;;
71490;SDS011;59307;50.060;9.150;2023-02-28T16:31:56;12.43;;;5.18;;
71490;SDS011;59307;50.060;9.150;2023-02-28T16:34:22;10.17;;;5.60;;
71490;SDS011;59307;50.060;9.150;2023-02-28T16:36:47;11.90;;;5.63;;
71490;SDS011;59307;50.060;9.150;2023-02-28T16:39:13;12.68;;;5.68;;
71490;SDS011;59307;50.060;9.150;2023-02-28T16:41:38;10.03;;;5.13;;
71490;SDS011;59307;50.060;9.150;2023-02-28T16:44:07;11.50;;;5.33;;
71490;SDS011;59307;50.060;9.150;2023-02-28T16:46:34;10.98;;;5.00;;
71490;SDS011;59307;50.060;9.150;2023-02-28T16:49:00;11.93;;;5.25;;
71490;SDS011;59307;50.060;9.150;2023-02-28T16:51:26;10.90;;;5.37;;
71490;SDS011;59307;50.060;9.150;2023-02-28T16:53:51;13.17;;;6.23;;
71490;SDS011;59307;50.060;9.150;2023-02-28T16:56:20;12.33;;;5.73;;
71490;SDS011;59307;50.060;9.150;2023-02-28T16:58:46;12.40;;;6.10;;
71490;SDS011;59307;50.060;9.150;2023-02-28T17:01:11;11.40;;;6.03;;
71490;SDS011;59307;50.060;9.150;2023-02-28T17:03:37;10.53;;;5.30;;